createdAt,value
2022-09-12T00:01:55.149Z,5.77
2022-09-12T00:04:22.118Z,6.93
2022-09-12T00:06:49.086Z,5.70
2022-09-12T00:09:16.426Z,6.10
2022-09-12T00:11:45.336Z,5.53
2022-09-12T00:14:15.485Z,5.30
2022-09-12T00:16:42.803Z,4.80
2022-09-12T00:19:10.559Z,5.93
2022-09-12T00:21:39.026Z,5.40
2022-09-12T00:24:06.604Z,5.60
2022-09-12T00:26:33.746Z,4.87
2022-09-12T00:29:00.711Z,5.90
2022-09-12T00:31:28.071Z,6.20
2022-09-12T00:33:57.149Z,4.83
2022-09-12T00:36:25.521Z,5.10
2022-09-12T00:38:53.468Z,4.70
2022-09-12T00:41:38.842Z,5.63
2022-09-12T00:44:24.099Z,6.77
2022-09-12T00:47:10.417Z,5.10
2022-09-12T00:49:49.687Z,5.67
2022-09-12T00:52:27.644Z,5.33
2022-09-12T00:54:57.787Z,6.97
2022-09-12T00:57:29.834Z,5.43
2022-09-12T01:00:04.524Z,6.37
2022-09-12T01:02:31.406Z,5.80
2022-09-12T01:04:58.400Z,5.40
2022-09-12T01:07:25.535Z,5.37
2022-09-12T01:09:52.496Z,5.77
2022-09-12T01:12:19.546Z,5.93
2022-09-12T01:14:46.382Z,5.50
2022-09-12T01:17:14.971Z,5.30
2022-09-12T01:20:19.099Z,5.47
2022-09-12T01:23:01.004Z,5.63
2022-09-12T01:25:55.121Z,7.23
2022-09-12T01:28:53.908Z,5.00
2022-09-12T01:31:49.042Z,5.57
2022-09-12T01:34:46.152Z,5.30
2022-09-12T01:37:46.923Z,6.03
2022-09-12T01:40:23.944Z,4.80
2022-09-12T01:43:18.307Z,5.57
2022-09-12T01:46:15.695Z,5.00
2022-09-12T01:48:46.628Z,4.80
2022-09-12T01:51:26.408Z,4.90
2022-09-12T01:54:03.950Z,5.17
2022-09-12T01:56:35.543Z,5.20
2022-09-12T01:59:08.805Z,5.23
2022-09-12T02:01:58.800Z,4.73
2022-09-12T02:04:34.119Z,5.13
2022-09-12T02:07:16.907Z,5.63
2022-09-12T02:09:46.608Z,4.30
2022-09-12T02:12:16.749Z,6.20
2022-09-12T02:14:49.463Z,5.00
2022-09-12T02:17:23.061Z,4.60
2022-09-12T02:19:56.792Z,5.00
2022-09-12T02:22:27.750Z,5.10
2022-09-12T02:24:59.246Z,5.17
2022-09-12T02:27:37.761Z,5.07
2022-09-12T02:30:06.507Z,5.53
2022-09-12T02:32:58.624Z,5.03
2022-09-12T02:35:36.774Z,5.00
2022-09-12T02:38:41.922Z,6.07
2022-09-12T02:41:09.199Z,5.07
2022-09-12T02:43:37.815Z,5.83
2022-09-12T02:46:10.574Z,5.63
2022-09-12T02:48:41.723Z,6.37
2022-09-12T02:51:09.229Z,5.40
2022-09-12T02:53:36.834Z,5.53
2022-09-12T02:56:08.638Z,10.13
2022-09-12T02:58:35.566Z,5.73
2022-09-12T03:01:23.554Z,5.60
2022-09-12T03:03:56.529Z,5.70
2022-09-12T03:06:51.597Z,5.73
2022-09-12T03:09:34.547Z,5.90
2022-09-12T03:12:19.480Z,5.90
2022-09-12T03:14:54.419Z,6.20
2022-09-12T03:18:06.379Z,5.77
2022-09-12T03:21:11.949Z,5.30
2022-09-12T03:23:52.319Z,5.43
2022-09-12T03:26:36.309Z,5.17
2022-09-12T03:29:04.970Z,5.63
2022-09-12T03:31:31.820Z,5.60
2022-09-12T03:34:00.275Z,5.53
2022-09-12T03:36:29.371Z,6.20
2022-09-12T03:38:56.448Z,5.97
2022-09-12T03:41:23.256Z,5.70
2022-09-12T03:43:50.024Z,6.10
2022-09-12T03:46:16.902Z,5.97
2022-09-12T03:48:43.681Z,7.27
2022-09-12T03:51:10.990Z,6.63
2022-09-12T03:53:37.868Z,5.97
2022-09-12T03:56:11.769Z,5.77
2022-09-12T03:58:39.423Z,8.20
2022-09-12T04:01:12.776Z,5.60
2022-09-12T04:03:44.113Z,7.80
2022-09-12T04:06:14.563Z,6.60
2022-09-12T04:08:47.872Z,5.80
2022-09-12T04:11:16.430Z,6.67
2022-09-12T04:13:45.244Z,5.43
2022-09-12T04:16:13.996Z,6.37
2022-09-12T04:18:40.851Z,5.57
2022-09-12T04:21:14.422Z,5.80
2022-09-12T04:23:41.273Z,5.87
2022-09-12T04:26:08.925Z,5.10
2022-09-12T04:28:37.468Z,5.33
2022-09-12T04:31:10.080Z,5.60
2022-09-12T04:33:37.087Z,5.20
2022-09-12T04:36:14.337Z,5.40
2022-09-12T04:38:41.317Z,6.47
2022-09-12T04:41:15.538Z,5.93
2022-09-12T04:43:43.212Z,5.93
2022-09-12T04:46:12.168Z,5.60
2022-09-12T04:48:39.073Z,5.90
2022-09-12T04:51:15.332Z,6.07
2022-09-12T04:53:42.997Z,6.33
2022-09-12T04:56:12.150Z,5.37
2022-09-12T04:58:39.225Z,5.70
2022-09-12T05:01:11.730Z,6.87
2022-09-12T05:03:39.804Z,6.67
2022-09-12T05:06:08.880Z,5.87
2022-09-12T05:08:35.936Z,6.27
2022-09-12T05:11:08.161Z,6.20
2022-09-12T05:13:35.364Z,6.20
2022-09-12T05:16:03.847Z,6.47
2022-09-12T05:18:35.317Z,6.77
2022-09-12T05:21:04.440Z,7.00
2022-09-12T05:23:31.650Z,6.50
2022-09-12T05:26:00.337Z,6.83
2022-09-12T05:28:35.588Z,6.43
2022-09-12T05:31:10.915Z,6.80
2022-09-12T05:33:39.240Z,6.63
2022-09-12T05:36:08.124Z,6.47
2022-09-12T05:38:35.619Z,7.03
2022-09-12T05:41:18.249Z,7.40
2022-09-12T05:43:47.608Z,7.27
2022-09-12T05:46:16.831Z,7.13
2022-09-12T05:48:45.643Z,6.87
2022-09-12T05:51:26.962Z,8.10
2022-09-12T05:53:56.834Z,5.90
2022-09-12T05:56:26.275Z,6.50
2022-09-12T05:58:56.057Z,8.67
2022-09-12T06:01:23.418Z,5.73
2022-09-12T06:03:52.545Z,5.10
2022-09-12T06:06:21.611Z,5.60
2022-09-12T06:08:51.047Z,5.63
2022-09-12T06:11:21.195Z,6.43
2022-09-12T06:13:48.286Z,6.53
2022-09-12T06:16:23.443Z,6.20
2022-09-12T06:19:01.993Z,5.63
2022-09-12T06:21:31.260Z,6.60
2022-09-12T06:23:58.904Z,8.00
2022-09-12T06:26:26.398Z,5.77
2022-09-12T06:28:55.621Z,6.57
2022-09-12T06:31:25.775Z,6.43
2022-09-12T06:33:54.112Z,5.70
2022-09-12T06:36:22.478Z,6.40
2022-09-12T06:38:54.793Z,6.63
2022-09-12T06:41:21.950Z,6.73
2022-09-12T06:43:48.751Z,5.97
2022-09-12T06:46:15.730Z,6.93
2022-09-12T06:48:42.897Z,6.40
2022-09-12T06:51:13.375Z,5.90
2022-09-12T06:53:40.534Z,7.03
2022-09-12T06:56:13.978Z,6.40
2022-09-12T06:58:42.146Z,5.83
2022-09-12T07:01:12.519Z,7.43
2022-09-12T07:03:39.839Z,6.00
2022-09-12T07:06:12.225Z,6.33
2022-09-12T07:08:40.892Z,8.07
2022-09-12T07:11:20.028Z,10.43
2022-09-12T07:13:49.550Z,6.00
2022-09-12T07:16:19.721Z,6.00
2022-09-12T07:18:55.141Z,5.87
2022-09-12T07:21:22.623Z,5.60
2022-09-12T07:23:49.733Z,6.10
2022-09-12T07:26:16.760Z,7.97
2022-09-12T07:28:44.295Z,4.80
2022-09-12T07:31:16.930Z,5.10
2022-09-12T07:33:44.333Z,5.07
2022-09-12T07:36:16.339Z,4.50
2022-09-12T07:38:44.127Z,3.77
2022-09-12T07:41:24.589Z,4.30
2022-09-12T07:43:56.156Z,4.37
2022-09-12T07:46:24.080Z,3.80
2022-09-12T07:48:52.266Z,4.13
2022-09-12T07:51:19.552Z,4.50
2022-09-12T07:53:47.031Z,4.60
2022-09-12T07:56:13.954Z,4.03
2022-09-12T07:58:41.950Z,4.87
2022-09-12T08:01:14.213Z,5.03
2022-09-12T08:03:42.375Z,3.40
2022-09-12T08:06:15.210Z,2.80
2022-09-12T08:08:42.931Z,3.10
2022-09-12T08:11:13.556Z,3.63
2022-09-12T08:13:42.333Z,4.73
2022-09-12T08:16:14.872Z,3.37
2022-09-12T08:18:42.121Z,3.00
2022-09-12T08:21:13.507Z,2.70
2022-09-12T08:23:40.842Z,2.50
2022-09-12T08:26:08.256Z,2.90
2022-09-12T08:28:36.313Z,2.33
2022-09-12T08:31:05.209Z,3.10
2022-09-12T08:33:33.557Z,2.37
2022-09-12T08:36:27.383Z,4.13
2022-09-12T08:38:59.655Z,2.47
2022-09-12T08:41:38.512Z,2.53
2022-09-12T08:44:26.435Z,3.07
2022-09-12T08:47:22.529Z,3.50
2022-09-12T08:50:08.186Z,2.80
2022-09-12T08:53:04.445Z,4.07
2022-09-12T08:55:42.764Z,4.07
2022-09-12T08:58:17.137Z,2.47
2022-09-12T09:00:49.881Z,4.23
2022-09-12T09:03:36.880Z,3.57
2022-09-12T09:06:09.183Z,2.80
2022-09-12T09:09:05.381Z,2.90
2022-09-12T09:11:37.573Z,2.90
2022-09-12T09:14:49.021Z,2.30
2022-09-12T09:17:25.370Z,2.27
2022-09-12T09:20:24.099Z,2.03
2022-09-12T09:23:13.204Z,2.60
2022-09-12T09:25:47.306Z,2.80
2022-09-12T09:28:20.753Z,2.00
2022-09-12T09:30:47.679Z,2.80
2022-09-12T09:33:26.836Z,2.73
2022-09-12T09:36:13.237Z,2.83
2022-09-12T09:39:00.731Z,2.23
2022-09-12T09:41:49.303Z,3.20
2022-09-12T09:44:17.175Z,3.73
2022-09-12T09:46:44.161Z,2.43
2022-09-12T09:49:14.672Z,5.33
2022-09-12T09:51:42.798Z,1.73
2022-09-12T09:54:25.534Z,2.00
2022-09-12T09:56:52.393Z,2.30
2022-09-12T09:59:29.568Z,2.07
2022-09-12T10:02:03.339Z,1.90
2022-09-12T10:04:41.033Z,2.67
2022-09-12T10:07:19.470Z,2.00
2022-09-12T10:10:07.812Z,2.80
2022-09-12T10:12:34.593Z,2.37
2022-09-12T10:15:16.152Z,2.00
2022-09-12T10:17:46.398Z,3.03
2022-09-12T10:20:37.256Z,1.90
2022-09-12T10:23:23.676Z,1.50
2022-09-12T10:25:57.651Z,3.03
2022-09-12T10:28:36.235Z,1.50
2022-09-12T10:31:04.026Z,2.17
2022-09-12T10:33:43.808Z,1.50
2022-09-12T10:36:11.179Z,4.73
2022-09-12T10:38:38.059Z,3.10
2022-09-12T10:41:07.904Z,3.13
2022-09-12T10:43:36.285Z,2.80
2022-09-12T10:46:18.391Z,1.80
2022-09-12T10:48:49.931Z,1.67
2022-09-12T10:51:26.032Z,1.63
2022-09-12T10:53:56.508Z,1.90
2022-09-12T10:56:28.834Z,3.43
2022-09-12T10:59:07.909Z,1.77
2022-09-12T11:01:41.939Z,1.57
2022-09-12T11:04:44.278Z,1.70
2022-09-12T11:07:47.163Z,1.73
2022-09-12T11:10:42.539Z,1.60
2022-09-12T11:13:26.138Z,1.87
2022-09-12T11:16:09.450Z,2.07
2022-09-12T11:19:07.425Z,2.80
2022-09-12T11:22:01.805Z,1.50
2022-09-12T11:24:31.563Z,2.10
2022-09-12T11:27:01.136Z,1.60
2022-09-12T11:29:57.638Z,1.73
2022-09-12T11:33:05.691Z,1.73
2022-09-12T11:35:34.625Z,2.83
2022-09-12T11:38:10.237Z,1.73
2022-09-12T11:40:43.600Z,1.60
2022-09-12T11:43:36.907Z,1.40
2022-09-12T11:46:28.019Z,1.40
2022-09-12T11:49:19.566Z,1.47
2022-09-12T11:51:59.478Z,1.67
2022-09-12T11:54:53.680Z,1.10
2022-09-12T11:57:25.926Z,1.30
2022-09-12T12:00:14.887Z,1.40
2022-09-12T12:03:03.353Z,1.30
2022-09-12T12:05:44.172Z,1.93
2022-09-12T12:08:12.164Z,1.40
2022-09-12T12:10:41.015Z,1.67
2022-09-12T12:13:24.134Z,1.73
2022-09-12T12:16:16.171Z,1.57
2022-09-12T12:18:43.928Z,1.50
2022-09-12T12:21:28.104Z,1.40
2022-09-12T12:24:10.156Z,1.40
2022-09-12T12:26:42.758Z,1.40
2022-09-12T12:29:19.468Z,1.77
2022-09-12T12:32:04.241Z,1.40
2022-09-12T12:34:30.972Z,1.33
2022-09-12T12:37:00.715Z,1.87
2022-09-12T12:39:31.957Z,1.50
2022-09-12T12:42:00.124Z,1.40
2022-09-12T12:45:02.206Z,2.00
2022-09-12T12:47:34.040Z,1.50
2022-09-12T12:50:23.422Z,1.33
2022-09-12T12:52:51.801Z,1.90
2022-09-12T12:55:39.160Z,1.23
2022-09-12T12:58:08.289Z,1.87
2022-09-12T13:00:40.357Z,4.17
2022-09-12T13:03:07.080Z,2.23
2022-09-12T13:05:52.450Z,1.40
2022-09-12T13:08:19.167Z,1.40
2022-09-12T13:10:53.535Z,1.40
2022-09-12T13:13:38.900Z,1.50
2022-09-12T13:16:06.117Z,3.37
2022-09-12T13:18:48.953Z,2.67
2022-09-12T13:21:18.712Z,1.90
2022-09-12T13:24:02.046Z,1.73
2022-09-12T13:26:32.742Z,1.30
2022-09-12T13:29:21.514Z,1.50
2022-09-12T13:32:00.717Z,1.40
2022-09-12T13:34:34.038Z,2.47
2022-09-12T13:37:06.800Z,1.77
2022-09-12T13:39:59.053Z,1.40
2022-09-12T13:42:37.731Z,1.40
2022-09-12T13:45:07.366Z,2.10
2022-09-12T13:47:42.934Z,1.70
2022-09-12T13:50:16.648Z,1.33
2022-09-12T13:52:48.349Z,1.43
2022-09-12T13:55:31.405Z,1.37
2022-09-12T13:58:04.949Z,1.77
2022-09-12T14:00:34.925Z,1.80
2022-09-12T14:03:21.178Z,1.73
2022-09-12T14:05:57.043Z,1.80
2022-09-12T14:08:24.301Z,1.43
2022-09-12T14:10:51.549Z,2.10
2022-09-12T14:13:21.420Z,2.03
2022-09-12T14:15:50.751Z,2.47
2022-09-12T14:18:33.712Z,1.50
2022-09-12T14:21:28.405Z,1.80
2022-09-12T14:23:55.375Z,1.63
2022-09-12T14:26:23.552Z,1.83
2022-09-12T14:28:51.558Z,2.17
2022-09-12T14:31:29.316Z,2.70
2022-09-12T14:34:09.627Z,1.63
2022-09-12T14:36:39.960Z,1.90
2022-09-12T14:39:21.973Z,1.63
2022-09-12T14:41:49.972Z,1.50
2022-09-12T14:44:24.134Z,1.67
2022-09-12T14:46:52.112Z,2.87
2022-09-12T14:49:28.056Z,1.53
2022-09-12T14:51:57.940Z,2.93
2022-09-12T14:54:27.709Z,1.73
2022-09-12T14:56:57.906Z,2.00
2022-09-12T14:59:35.924Z,1.70
2022-09-12T15:02:26.453Z,2.03
2022-09-12T15:05:17.907Z,1.73
2022-09-12T15:07:53.934Z,1.53
2022-09-12T15:10:26.012Z,2.97
2022-09-12T15:13:14.038Z,2.67
2022-09-12T15:15:46.514Z,1.60
2022-09-12T15:18:14.804Z,2.57
2022-09-12T15:20:44.476Z,2.37
2022-09-12T15:23:40.782Z,1.53
2022-09-12T15:26:11.597Z,1.87
2022-09-12T15:28:38.431Z,3.23
2022-09-12T15:31:21.660Z,1.63
2022-09-12T15:33:48.576Z,2.63
2022-09-12T15:36:18.686Z,1.83
2022-09-12T15:38:46.065Z,2.87
2022-09-12T15:41:37.366Z,1.70
2022-09-12T15:44:05.151Z,1.70
2022-09-12T15:46:32.065Z,3.83
2022-09-12T15:48:58.876Z,1.73
2022-09-12T15:51:25.642Z,1.90
2022-09-12T15:53:52.746Z,1.73
2022-09-12T15:56:21.365Z,1.60
2022-09-12T15:58:58.645Z,1.60
2022-09-12T16:01:28.194Z,3.03
2022-09-12T16:03:55.429Z,2.30
2022-09-12T16:06:23.491Z,2.97
2022-09-12T16:08:50.470Z,4.73
2022-09-12T16:11:25.893Z,1.80
2022-09-12T16:13:53.942Z,1.57
2022-09-12T16:16:21.182Z,2.23
2022-09-12T16:18:48.454Z,1.60
2022-09-12T16:21:15.964Z,3.53
2022-09-12T16:23:44.100Z,2.40
2022-09-12T16:26:11.217Z,4.13
2022-09-12T16:28:38.029Z,2.93
2022-09-12T16:31:07.328Z,1.90
2022-09-12T16:33:34.556Z,1.70
2022-09-12T16:36:09.606Z,2.43
2022-09-12T16:38:46.853Z,1.97
2022-09-12T16:41:15.173Z,2.53
2022-09-12T16:43:42.972Z,2.33
2022-09-12T16:46:21.470Z,2.47
2022-09-12T16:48:52.395Z,2.40
2022-09-12T16:51:25.892Z,4.07
2022-09-12T16:53:54.045Z,4.37
2022-09-12T16:56:21.223Z,2.20
2022-09-12T16:58:48.357Z,2.00
2022-09-12T17:01:17.871Z,4.33
2022-09-12T17:03:45.038Z,4.27
2022-09-12T17:06:18.057Z,2.83
2022-09-12T17:08:48.003Z,2.47
2022-09-12T17:11:20.646Z,3.77
2022-09-12T17:14:04.456Z,2.53
2022-09-12T17:16:34.544Z,3.60
2022-09-12T17:19:01.441Z,7.63
2022-09-12T17:21:28.347Z,2.40
2022-09-12T17:23:55.373Z,2.87
2022-09-12T17:26:22.415Z,3.67
2022-09-12T17:28:49.619Z,2.50
2022-09-12T17:31:17.271Z,2.33
2022-09-12T17:33:44.191Z,1.83
2022-09-12T17:36:15.245Z,3.00
2022-09-12T17:38:43.818Z,2.73
2022-09-12T17:41:17.448Z,1.97
2022-09-12T17:43:50.835Z,3.13
2022-09-12T17:46:19.296Z,3.67
2022-09-12T17:48:51.577Z,2.40
2022-09-12T17:51:18.383Z,2.83
2022-09-12T17:53:45.259Z,3.27
2022-09-12T17:56:12.639Z,2.87
2022-09-12T17:58:39.906Z,2.67
2022-09-12T18:01:33.110Z,2.50
2022-09-12T18:04:01.068Z,2.37
2022-09-12T18:06:29.041Z,2.77
2022-09-12T18:08:55.912Z,2.53
2022-09-12T18:11:22.799Z,3.03
2022-09-12T18:13:50.617Z,3.20
2022-09-12T18:16:17.664Z,3.83
2022-09-12T18:18:44.478Z,4.23
2022-09-12T18:21:12.522Z,3.80
2022-09-12T18:23:39.529Z,2.67
2022-09-12T18:26:08.392Z,4.23
2022-09-12T18:28:37.966Z,4.60
2022-09-12T18:31:11.233Z,4.53
2022-09-12T18:33:38.081Z,5.03
2022-09-12T18:36:05.787Z,4.57
2022-09-12T18:38:32.669Z,4.23
2022-09-12T18:41:07.805Z,5.37
2022-09-12T18:43:34.953Z,6.07
2022-09-12T18:46:06.442Z,6.83
2022-09-12T18:48:34.250Z,5.27
2022-09-12T18:51:12.340Z,6.17
2022-09-12T18:53:39.381Z,5.53
2022-09-12T18:56:09.087Z,5.10
2022-09-12T18:58:37.736Z,5.83
2022-09-12T19:01:11.762Z,6.17
2022-09-12T19:03:38.784Z,6.40
2022-09-12T19:06:18.055Z,6.03
2022-09-12T19:08:45.360Z,7.20
2022-09-12T19:11:13.124Z,4.63
2022-09-12T19:13:42.148Z,6.07
2022-09-12T19:16:11.464Z,6.67
2022-09-12T19:18:39.765Z,5.10
2022-09-12T19:21:08.326Z,4.93
2022-09-12T19:23:35.854Z,5.33
2022-09-12T19:26:05.625Z,5.70
2022-09-12T19:28:32.843Z,4.53
2022-09-12T19:30:59.722Z,4.80
2022-09-12T19:33:26.555Z,4.30
2022-09-12T19:35:53.412Z,4.73
2022-09-12T19:38:20.176Z,4.57
2022-09-12T19:40:59.259Z,4.87
2022-09-12T19:43:26.427Z,3.90
2022-09-12T19:45:53.657Z,4.57
2022-09-12T19:48:21.238Z,5.00
2022-09-12T19:50:48.434Z,4.20
2022-09-12T19:53:15.987Z,5.63
2022-09-12T19:55:43.289Z,4.93
2022-09-12T19:58:10.583Z,5.87
2022-09-12T20:00:37.849Z,4.30
2022-09-12T20:03:05.514Z,3.50
2022-09-12T20:05:33.296Z,4.20
2022-09-12T20:08:00.967Z,5.13
2022-09-12T20:10:27.904Z,4.83
2022-09-12T20:12:54.800Z,4.13
2022-09-12T20:15:21.679Z,4.37
2022-09-12T20:17:52.551Z,6.10
2022-09-12T20:20:19.337Z,3.40
2022-09-12T20:22:50.782Z,4.13
2022-09-12T20:25:18.063Z,3.47
2022-09-12T20:27:44.779Z,4.23
2022-09-12T20:30:12.212Z,3.97
2022-09-12T20:32:38.989Z,7.07
2022-09-12T20:35:06.482Z,4.57
2022-09-12T20:37:33.219Z,4.23
2022-09-12T20:40:00.003Z,4.27
2022-09-12T20:42:26.778Z,3.77
2022-09-12T20:44:53.584Z,3.80
2022-09-12T20:47:20.316Z,3.87
2022-09-12T20:49:47.058Z,5.17
2022-09-12T20:52:13.803Z,4.50
2022-09-12T20:54:40.570Z,9.70
2022-09-12T20:57:07.406Z,5.00
2022-09-12T20:59:35.174Z,4.13
2022-09-12T21:02:01.980Z,3.53
2022-09-12T21:04:28.934Z,5.47
2022-09-12T21:06:55.742Z,4.13
2022-09-12T21:09:22.958Z,4.63
2022-09-12T21:11:50.332Z,4.30
2022-09-12T21:14:17.093Z,7.10
2022-09-12T21:16:43.826Z,4.03
2022-09-12T21:19:10.758Z,3.67
2022-09-12T21:21:37.494Z,3.60
2022-09-12T21:24:04.465Z,3.70
2022-09-12T21:26:31.503Z,4.67
2022-09-12T21:28:58.314Z,4.47
2022-09-12T21:31:25.537Z,5.20
2022-09-12T21:33:52.554Z,4.93
2022-09-12T21:36:19.372Z,3.67
2022-09-12T21:38:46.123Z,5.33
2022-09-12T21:41:17.004Z,4.53
2022-09-12T21:43:44.262Z,4.00
2022-09-12T21:46:12.039Z,4.80
2022-09-12T21:48:38.926Z,4.43
2022-09-12T21:51:06.506Z,5.23
2022-09-12T21:53:33.297Z,5.97
2022-09-12T21:56:04.828Z,4.60
2022-09-12T21:58:31.734Z,4.13
2022-09-12T22:01:00.277Z,5.33
2022-09-12T22:03:28.582Z,4.47
2022-09-12T22:06:03.819Z,3.43
2022-09-12T22:08:32.610Z,5.30
2022-09-12T22:11:02.034Z,4.17
2022-09-12T22:13:33.694Z,3.93
2022-09-12T22:16:03.190Z,4.10
2022-09-12T22:18:33.293Z,4.73
2022-09-12T22:21:05.605Z,3.63
2022-09-12T22:23:50.915Z,3.67
2022-09-12T22:26:19.112Z,4.43
2022-09-12T22:28:47.510Z,3.93
2022-09-12T22:31:15.267Z,4.10
2022-09-12T22:33:42.037Z,3.90
2022-09-12T22:36:10.015Z,4.30
2022-09-12T22:38:37.007Z,3.60
2022-09-12T22:41:05.262Z,3.50
2022-09-12T22:43:33.456Z,3.47
2022-09-12T22:46:00.429Z,3.60
2022-09-12T22:48:27.323Z,3.90
2022-09-12T22:50:54.231Z,4.67
2022-09-12T22:53:20.994Z,3.43
2022-09-12T22:55:47.888Z,4.00
2022-09-12T22:58:14.899Z,3.70
2022-09-12T23:00:48.079Z,4.03
2022-09-12T23:03:15.004Z,5.60
2022-09-12T23:05:41.803Z,3.47
2022-09-12T23:08:08.522Z,3.20
2022-09-12T23:10:36.259Z,3.70
2022-09-12T23:13:04.003Z,3.50
2022-09-12T23:15:31.442Z,3.30
2022-09-12T23:17:58.987Z,3.60
2022-09-12T23:20:25.891Z,3.70
2022-09-12T23:22:52.705Z,3.67
2022-09-12T23:25:21.643Z,4.10
2022-09-12T23:27:48.765Z,3.50
2022-09-12T23:30:21.491Z,3.63
2022-09-12T23:32:49.056Z,3.60
2022-09-12T23:35:19.393Z,3.93
2022-09-12T23:37:46.791Z,5.53
2022-09-12T23:40:13.765Z,5.07
2022-09-12T23:42:40.684Z,4.20
2022-09-12T23:45:08.265Z,3.70
2022-09-12T23:47:34.986Z,4.10
2022-09-12T23:50:01.951Z,4.03
2022-09-12T23:52:29.459Z,4.00
2022-09-12T23:54:56.227Z,6.53
2022-09-12T23:57:22.983Z,4.10
2022-09-12T23:59:49.710Z,4.40
